sensor_id;sensor_type;location;lat;lon;timestamp;P1;durP1;ratioP1;P2;durP2;ratioP2
21192;SDS011;10754;51.106;7.164;2023-09-12T00:02:03;4.85;;;4.43;;
21192;SDS011;10754;51.106;7.164;2023-09-12T00:04:29;5.45;;;5.00;;
21192;SDS011;10754;51.106;7.164;2023-09-12T00:06:55;5.50;;;4.97;;
21192;SDS011;10754;51.106;7.164;2023-09-12T00:09:20;5.32;;;4.60;;
21192;SDS011;10754;51.106;7.164;2023-09-12T00:11:46;4.75;;;3.88;;
21192;SDS011;10754;51.106;7.164;2023-09-12T00:14:14;5.18;;;3.95;;
21192;SDS011;10754;51.106;7.164;2023-09-12T00:16:41;7.68;;;4.45;;
21192;SDS011;10754;51.106;7.164;2023-09-12T00:19:06;5.88;;;4.50;;
21192;SDS011;10754;51.106;7.164;2023-09-12T00:21:32;5.55;;;4.40;;
21192;SDS011;10754;51.106;7.164;2023-09-12T00:23:57;5.00;;;4.22;;
21192;SDS011;10754;51.106;7.164;2023-09-12T00:26:23;4.07;;;3.75;;
21192;SDS011;10754;51.106;7.164;2023-09-12T00:28:48;5.45;;;4.25;;
21192;SDS011;10754;51.106;7.164;2023-09-12T00:31:14;5.10;;;3.72;;
21192;SDS011;10754;51.106;7.164;2023-09-12T00:33:39;4.13;;;3.55;;
21192;SDS011;10754;51.106;7.164;2023-09-12T00:36:05;3.45;;;3.00;;
21192;SDS011;10754;51.106;7.164;2023-09-12T00:38:31;4.63;;;3.20;;
21192;SDS011;10754;51.106;7.164;2023-09-12T00:40:56;4.47;;;3.10;;
21192;SDS011;10754;51.106;7.164;2023-09-12T00:43:22;4.30;;;3.05;;
21192;SDS011;10754;51.106;7.164;2023-09-12T00:45:48;3.67;;;2.60;;
21192;SDS011;10754;51.106;7.164;2023-09-12T00:48:13;2.58;;;2.38;;
21192;SDS011;10754;51.106;7.164;2023-09-12T00:50:43;3.80;;;2.60;;
21192;SDS011;10754;51.106;7.164;2023-09-12T00:53:10;3.30;;;2.80;;
21192;SDS011;10754;51.106;7.164;2023-09-12T00:55:36;2.60;;;2.40;;
21192;SDS011;10754;51.106;7.164;2023-09-12T00:58:08;2.90;;;2.35;;
21192;SDS011;10754;51.106;7.164;2023-09-12T01:00:33;4.10;;;2.53;;
21192;SDS011;10754;51.106;7.164;2023-09-12T01:02:59;2.72;;;2.50;;
21192;SDS011;10754;51.106;7.164;2023-09-12T01:05:25;3.95;;;2.35;;
21192;SDS011;10754;51.106;7.164;2023-09-12T01:07:51;3.15;;;2.80;;
21192;SDS011;10754;51.106;7.164;2023-09-12T01:10:18;2.40;;;2.20;;
21192;SDS011;10754;51.106;7.164;2023-09-12T01:12:44;3.22;;;2.50;;
21192;SDS011;10754;51.106;7.164;2023-09-12T01:15:09;3.05;;;2.50;;
21192;SDS011;10754;51.106;7.164;2023-09-12T01:17:39;2.88;;;2.53;;
21192;SDS011;10754;51.106;7.164;2023-09-12T01:20:06;3.38;;;2.60;;
21192;SDS011;10754;51.106;7.164;2023-09-12T01:25:19;4.25;;;2.75;;
21192;SDS011;10754;51.106;7.164;2023-09-12T01:27:51;3.60;;;2.80;;
21192;SDS011;10754;51.106;7.164;2023-09-12T01:30:20;3.33;;;2.80;;
21192;SDS011;10754;51.106;7.164;2023-09-12T01:32:47;4.78;;;3.28;;
21192;SDS011;10754;51.106;7.164;2023-09-12T01:35:13;3.88;;;2.88;;
21192;SDS011;10754;51.106;7.164;2023-09-12T01:37:39;3.08;;;2.78;;
21192;SDS011;10754;51.106;7.164;2023-09-12T01:40:05;2.60;;;2.40;;
21192;SDS011;10754;51.106;7.164;2023-09-12T01:42:42;3.58;;;2.70;;
21192;SDS011;10754;51.106;7.164;2023-09-12T01:45:11;2.90;;;2.42;;
21192;SDS011;10754;51.106;7.164;2023-09-12T01:47:39;2.90;;;2.70;;
21192;SDS011;10754;51.106;7.164;2023-09-12T01:50:06;4.57;;;2.38;;
21192;SDS011;10754;51.106;7.164;2023-09-12T01:52:33;3.13;;;2.45;;
21192;SDS011;10754;51.106;7.164;2023-09-12T01:55:01;3.63;;;2.47;;
21192;SDS011;10754;51.106;7.164;2023-09-12T01:57:27;2.97;;;2.20;;
21192;SDS011;10754;51.106;7.164;2023-09-12T01:59:53;2.90;;;2.65;;
21192;SDS011;10754;51.106;7.164;2023-09-12T02:02:19;2.55;;;2.35;;
21192;SDS011;10754;51.106;7.164;2023-09-12T02:04:51;5.38;;;2.58;;
21192;SDS011;10754;51.106;7.164;2023-09-12T02:07:24;2.42;;;2.22;;
21192;SDS011;10754;51.106;7.164;2023-09-12T02:09:51;4.30;;;2.20;;
21192;SDS011;10754;51.106;7.164;2023-09-12T02:12:17;2.63;;;2.42;;
21192;SDS011;10754;51.106;7.164;2023-09-12T02:14:42;2.17;;;2.00;;
21192;SDS011;10754;51.106;7.164;2023-09-12T02:17:08;3.35;;;2.20;;
21192;SDS011;10754;51.106;7.164;2023-09-12T02:19:33;4.78;;;2.17;;
21192;SDS011;10754;51.106;7.164;2023-09-12T02:21:59;2.65;;;2.00;;
21192;SDS011;10754;51.106;7.164;2023-09-12T02:24:24;2.78;;;2.33;;
21192;SDS011;10754;51.106;7.164;2023-09-12T02:26:50;3.72;;;2.28;;
21192;SDS011;10754;51.106;7.164;2023-09-12T02:29:16;2.28;;;2.10;;
21192;SDS011;10754;51.106;7.164;2023-09-12T02:31:41;2.33;;;2.10;;
21192;SDS011;10754;51.106;7.164;2023-09-12T02:34:07;2.17;;;2.00;;
21192;SDS011;10754;51.106;7.164;2023-09-12T02:36:32;2.15;;;1.95;;
21192;SDS011;10754;51.106;7.164;2023-09-12T02:38:57;2.88;;;1.95;;
21192;SDS011;10754;51.106;7.164;2023-09-12T02:41:23;2.35;;;2.15;;
21192;SDS011;10754;51.106;7.164;2023-09-12T02:43:49;3.13;;;2.30;;
21192;SDS011;10754;51.106;7.164;2023-09-12T02:46:14;2.53;;;2.10;;
21192;SDS011;10754;51.106;7.164;2023-09-12T02:48:40;2.53;;;2.33;;
21192;SDS011;10754;51.106;7.164;2023-09-12T02:51:05;2.30;;;2.10;;
21192;SDS011;10754;51.106;7.164;2023-09-12T02:53:31;2.53;;;2.30;;
21192;SDS011;10754;51.106;7.164;2023-09-12T02:55:56;2.45;;;2.13;;
21192;SDS011;10754;51.106;7.164;2023-09-12T02:58:22;2.67;;;2.22;;
21192;SDS011;10754;51.106;7.164;2023-09-12T03:00:47;3.22;;;2.45;;
21192;SDS011;10754;51.106;7.164;2023-09-12T03:03:15;3.08;;;2.45;;
21192;SDS011;10754;51.106;7.164;2023-09-12T03:05:42;3.13;;;2.78;;
21192;SDS011;10754;51.106;7.164;2023-09-12T03:08:07;3.63;;;3.22;;
21192;SDS011;10754;51.106;7.164;2023-09-12T03:10:33;5.80;;;3.28;;
21192;SDS011;10754;51.106;7.164;2023-09-12T03:12:58;3.75;;;3.20;;
21192;SDS011;10754;51.106;7.164;2023-09-12T03:15:24;4.43;;;3.17;;
21192;SDS011;10754;51.106;7.164;2023-09-12T03:17:49;4.10;;;3.50;;
21192;SDS011;10754;51.106;7.164;2023-09-12T03:20:15;4.82;;;3.38;;
21192;SDS011;10754;51.106;7.164;2023-09-12T03:22:41;3.50;;;3.17;;
21192;SDS011;10754;51.106;7.164;2023-09-12T03:25:06;4.18;;;3.78;;
21192;SDS011;10754;51.106;7.164;2023-09-12T03:27:32;3.92;;;3.63;;
21192;SDS011;10754;51.106;7.164;2023-09-12T03:29:58;3.78;;;3.47;;
21192;SDS011;10754;51.106;7.164;2023-09-12T03:32:23;5.03;;;3.30;;
21192;SDS011;10754;51.106;7.164;2023-09-12T03:34:49;3.60;;;3.30;;
21192;SDS011;10754;51.106;7.164;2023-09-12T03:37:14;4.63;;;3.20;;
21192;SDS011;10754;51.106;7.164;2023-09-12T03:39:40;4.20;;;3.42;;
21192;SDS011;10754;51.106;7.164;2023-09-12T03:42:05;4.03;;;3.28;;
21192;SDS011;10754;51.106;7.164;2023-09-12T03:44:31;4.20;;;3.72;;
21192;SDS011;10754;51.106;7.164;2023-09-12T03:46:56;3.88;;;3.13;;
21192;SDS011;10754;51.106;7.164;2023-09-12T03:49:23;4.22;;;3.78;;
21192;SDS011;10754;51.106;7.164;2023-09-12T03:51:48;3.95;;;3.55;;
21192;SDS011;10754;51.106;7.164;2023-09-12T03:54:14;4.38;;;3.97;;
21192;SDS011;10754;51.106;7.164;2023-09-12T03:56:39;5.00;;;3.50;;
21192;SDS011;10754;51.106;7.164;2023-09-12T03:59:05;4.13;;;3.58;;
21192;SDS011;10754;51.106;7.164;2023-09-12T04:01:31;4.20;;;3.80;;
21192;SDS011;10754;51.106;7.164;2023-09-12T04:03:57;4.50;;;3.70;;
21192;SDS011;10754;51.106;7.164;2023-09-12T04:06:22;3.55;;;3.25;;
21192;SDS011;10754;51.106;7.164;2023-09-12T04:08:48;4.28;;;3.90;;
21192;SDS011;10754;51.106;7.164;2023-09-12T04:11:14;4.20;;;3.60;;
21192;SDS011;10754;51.106;7.164;2023-09-12T04:13:39;4.45;;;3.72;;
21192;SDS011;10754;51.106;7.164;2023-09-12T04:16:04;3.20;;;2.88;;
21192;SDS011;10754;51.106;7.164;2023-09-12T04:18:30;5.18;;;3.60;;
21192;SDS011;10754;51.106;7.164;2023-09-12T04:20:56;6.43;;;3.85;;
21192;SDS011;10754;51.106;7.164;2023-09-12T04:23:24;4.57;;;3.60;;
21192;SDS011;10754;51.106;7.164;2023-09-12T04:25:50;4.00;;;3.60;;
21192;SDS011;10754;51.106;7.164;2023-09-12T04:28:15;4.65;;;3.78;;
21192;SDS011;10754;51.106;7.164;2023-09-12T04:30:41;4.90;;;3.25;;
21192;SDS011;10754;51.106;7.164;2023-09-12T04:33:06;3.30;;;3.00;;
21192;SDS011;10754;51.106;7.164;2023-09-12T04:35:33;3.90;;;3.50;;
21192;SDS011;10754;51.106;7.164;2023-09-12T04:37:58;6.18;;;3.70;;
21192;SDS011;10754;51.106;7.164;2023-09-12T04:40:24;3.83;;;3.50;;
21192;SDS011;10754;51.106;7.164;2023-09-12T04:42:49;4.18;;;3.78;;
21192;SDS011;10754;51.106;7.164;2023-09-12T04:45:15;3.90;;;3.50;;
21192;SDS011;10754;51.106;7.164;2023-09-12T04:47:40;3.88;;;3.55;;
21192;SDS011;10754;51.106;7.164;2023-09-12T04:50:06;4.85;;;3.67;;
21192;SDS011;10754;51.106;7.164;2023-09-12T04:52:32;4.05;;;3.65;;
21192;SDS011;10754;51.106;7.164;2023-09-12T04:54:57;3.78;;;3.22;;
21192;SDS011;10754;51.106;7.164;2023-09-12T04:57:23;3.60;;;3.25;;
21192;SDS011;10754;51.106;7.164;2023-09-12T04:59:48;4.55;;;3.38;;
21192;SDS011;10754;51.106;7.164;2023-09-12T05:02:14;3.60;;;3.30;;
21192;SDS011;10754;51.106;7.164;2023-09-12T05:04:40;4.72;;;3.35;;
21192;SDS011;10754;51.106;7.164;2023-09-12T05:07:06;3.42;;;3.13;;
21192;SDS011;10754;51.106;7.164;2023-09-12T05:09:31;3.45;;;3.13;;
21192;SDS011;10754;51.106;7.164;2023-09-12T05:11:57;3.58;;;3.25;;
21192;SDS011;10754;51.106;7.164;2023-09-12T05:14:22;3.30;;;3.00;;
21192;SDS011;10754;51.106;7.164;2023-09-12T05:16:48;4.22;;;3.15;;
21192;SDS011;10754;51.106;7.164;2023-09-12T05:19:13;3.53;;;3.22;;
21192;SDS011;10754;51.106;7.164;2023-09-12T05:21:39;3.33;;;3.03;;
21192;SDS011;10754;51.106;7.164;2023-09-12T05:24:04;3.13;;;2.67;;
21192;SDS011;10754;51.106;7.164;2023-09-12T05:26:30;3.20;;;2.88;;
21192;SDS011;10754;51.106;7.164;2023-09-12T05:28:56;3.08;;;2.78;;
21192;SDS011;10754;51.106;7.164;2023-09-12T05:31:21;3.67;;;2.80;;
21192;SDS011;10754;51.106;7.164;2023-09-12T05:33:47;6.95;;;2.88;;
21192;SDS011;10754;51.106;7.164;2023-09-12T05:36:13;3.35;;;2.97;;
21192;SDS011;10754;51.106;7.164;2023-09-12T05:38:39;3.28;;;2.75;;
21192;SDS011;10754;51.106;7.164;2023-09-12T05:41:04;3.88;;;3.03;;
21192;SDS011;10754;51.106;7.164;2023-09-12T05:43:30;5.18;;;3.47;;
21192;SDS011;10754;51.106;7.164;2023-09-12T05:45:55;3.75;;;3.30;;
21192;SDS011;10754;51.106;7.164;2023-09-12T05:48:23;5.10;;;3.33;;
21192;SDS011;10754;51.106;7.164;2023-09-12T05:50:48;3.13;;;2.83;;
21192;SDS011;10754;51.106;7.164;2023-09-12T05:53:14;4.15;;;3.17;;
21192;SDS011;10754;51.106;7.164;2023-09-12T05:55:39;3.75;;;3.03;;
21192;SDS011;10754;51.106;7.164;2023-09-12T05:58:05;3.85;;;3.00;;
21192;SDS011;10754;51.106;7.164;2023-09-12T06:00:31;3.72;;;2.97;;
21192;SDS011;10754;51.106;7.164;2023-09-12T06:02:57;3.95;;;3.08;;
21192;SDS011;10754;51.106;7.164;2023-09-12T06:05:22;3.97;;;3.35;;
21192;SDS011;10754;51.106;7.164;2023-09-12T06:07:48;3.92;;;3.40;;
21192;SDS011;10754;51.106;7.164;2023-09-12T06:10:14;5.35;;;3.50;;
21192;SDS011;10754;51.106;7.164;2023-09-12T06:12:39;4.45;;;3.58;;
21192;SDS011;10754;51.106;7.164;2023-09-12T06:15:05;4.35;;;3.70;;
21192;SDS011;10754;51.106;7.164;2023-09-12T06:17:31;3.63;;;3.17;;
21192;SDS011;10754;51.106;7.164;2023-09-12T06:19:56;4.65;;;3.50;;
21192;SDS011;10754;51.106;7.164;2023-09-12T06:22:22;3.33;;;3.05;;
21192;SDS011;10754;51.106;7.164;2023-09-12T06:24:48;3.75;;;3.25;;
21192;SDS011;10754;51.106;7.164;2023-09-12T06:27:17;4.28;;;3.60;;
21192;SDS011;10754;51.106;7.164;2023-09-12T06:29:46;5.13;;;3.78;;
21192;SDS011;10754;51.106;7.164;2023-09-12T06:32:15;5.18;;;4.55;;
21192;SDS011;10754;51.106;7.164;2023-09-12T06:34:44;5.78;;;4.60;;
21192;SDS011;10754;51.106;7.164;2023-09-12T06:37:10;5.63;;;5.13;;
21192;SDS011;10754;51.106;7.164;2023-09-12T06:39:36;7.70;;;5.13;;
21192;SDS011;10754;51.106;7.164;2023-09-12T06:42:02;5.88;;;4.85;;
21192;SDS011;10754;51.106;7.164;2023-09-12T06:44:27;4.80;;;4.18;;
21192;SDS011;10754;51.106;7.164;2023-09-12T06:46:53;5.35;;;4.85;;
21192;SDS011;10754;51.106;7.164;2023-09-12T06:49:18;6.88;;;4.70;;
21192;SDS011;10754;51.106;7.164;2023-09-12T06:51:44;5.18;;;4.68;;
21192;SDS011;10754;51.106;7.164;2023-09-12T06:54:09;5.57;;;4.53;;
21192;SDS011;10754;51.106;7.164;2023-09-12T06:56:35;5.13;;;4.47;;
21192;SDS011;10754;51.106;7.164;2023-09-12T06:59:03;5.78;;;4.65;;
21192;SDS011;10754;51.106;7.164;2023-09-12T07:01:29;4.43;;;4.03;;
21192;SDS011;10754;51.106;7.164;2023-09-12T07:03:55;5.90;;;4.65;;
21192;SDS011;10754;51.106;7.164;2023-09-12T07:06:21;7.72;;;4.25;;
21192;SDS011;10754;51.106;7.164;2023-09-12T07:08:47;6.53;;;4.35;;
21192;SDS011;10754;51.106;7.164;2023-09-12T07:11:12;5.35;;;4.28;;
21192;SDS011;10754;51.106;7.164;2023-09-12T07:13:38;5.97;;;4.22;;
21192;SDS011;10754;51.106;7.164;2023-09-12T07:16:03;5.22;;;4.10;;
21192;SDS011;10754;51.106;7.164;2023-09-12T07:18:30;5.75;;;4.03;;
21192;SDS011;10754;51.106;7.164;2023-09-12T07:20:58;5.78;;;4.40;;
21192;SDS011;10754;51.106;7.164;2023-09-12T07:23:28;4.57;;;3.92;;
21192;SDS011;10754;51.106;7.164;2023-09-12T07:25:54;5.40;;;3.75;;
21192;SDS011;10754;51.106;7.164;2023-09-12T07:28:22;5.45;;;3.55;;
21192;SDS011;10754;51.106;7.164;2023-09-12T07:30:48;4.20;;;3.80;;
21192;SDS011;10754;51.106;7.164;2023-09-12T07:33:14;4.50;;;3.80;;
21192;SDS011;10754;51.106;7.164;2023-09-12T07:35:40;11.02;;;3.45;;
21192;SDS011;10754;51.106;7.164;2023-09-12T07:38:05;3.80;;;3.40;;
21192;SDS011;10754;51.106;7.164;2023-09-12T07:40:31;3.80;;;3.50;;
21192;SDS011;10754;51.106;7.164;2023-09-12T07:42:56;4.38;;;3.25;;
21192;SDS011;10754;51.106;7.164;2023-09-12T07:45:22;4.60;;;3.50;;
21192;SDS011;10754;51.106;7.164;2023-09-12T07:47:47;3.40;;;3.10;;
21192;SDS011;10754;51.106;7.164;2023-09-12T07:50:13;3.65;;;2.88;;
21192;SDS011;10754;51.106;7.164;2023-09-12T07:52:39;3.58;;;3.28;;
21192;SDS011;10754;51.106;7.164;2023-09-12T07:55:07;3.20;;;2.90;;
21192;SDS011;10754;51.106;7.164;2023-09-12T07:57:33;5.15;;;3.25;;
21192;SDS011;10754;51.106;7.164;2023-09-12T07:59:59;3.45;;;3.13;;
21192;SDS011;10754;51.106;7.164;2023-09-12T08:02:25;3.55;;;3.20;;
21192;SDS011;10754;51.106;7.164;2023-09-12T08:04:51;3.47;;;2.95;;
21192;SDS011;10754;51.106;7.164;2023-09-12T08:07:18;3.60;;;3.25;;
21192;SDS011;10754;51.106;7.164;2023-09-12T08:09:54;3.42;;;3.13;;
21192;SDS011;10754;51.106;7.164;2023-09-12T08:12:22;3.67;;;3.13;;
21192;SDS011;10754;51.106;7.164;2023-09-12T08:14:49;4.50;;;3.90;;
21192;SDS011;10754;51.106;7.164;2023-09-12T08:17:15;3.80;;;3.50;;
21192;SDS011;10754;51.106;7.164;2023-09-12T08:19:41;4.82;;;3.42;;
21192;SDS011;10754;51.106;7.164;2023-09-12T08:22:07;3.47;;;3.17;;
21192;SDS011;10754;51.106;7.164;2023-09-12T08:24:34;4.40;;;4.00;;
21192;SDS011;10754;51.106;7.164;2023-09-12T08:27:00;4.20;;;3.80;;
21192;SDS011;10754;51.106;7.164;2023-09-12T08:29:28;3.70;;;3.40;;
21192;SDS011;10754;51.106;7.164;2023-09-12T08:31:54;4.75;;;3.63;;
21192;SDS011;10754;51.106;7.164;2023-09-12T08:34:20;4.63;;;4.03;;
21192;SDS011;10754;51.106;7.164;2023-09-12T08:36:45;5.43;;;4.75;;
21192;SDS011;10754;51.106;7.164;2023-09-12T08:39:12;4.30;;;3.78;;
21192;SDS011;10754;51.106;7.164;2023-09-12T08:41:39;4.05;;;3.65;;
21192;SDS011;10754;51.106;7.164;2023-09-12T08:44:05;4.18;;;3.78;;
21192;SDS011;10754;51.106;7.164;2023-09-12T08:46:32;3.75;;;3.40;;
21192;SDS011;10754;51.106;7.164;2023-09-12T08:48:57;5.15;;;3.75;;
21192;SDS011;10754;51.106;7.164;2023-09-12T08:51:23;4.25;;;3.45;;
21192;SDS011;10754;51.106;7.164;2023-09-12T08:53:51;4.75;;;3.70;;
21192;SDS011;10754;51.106;7.164;2023-09-12T08:56:18;5.68;;;4.15;;
21192;SDS011;10754;51.106;7.164;2023-09-12T08:58:44;4.88;;;4.38;;
21192;SDS011;10754;51.106;7.164;2023-09-12T09:01:10;6.93;;;4.28;;
21192;SDS011;10754;51.106;7.164;2023-09-12T09:03:38;5.43;;;3.78;;
21192;SDS011;10754;51.106;7.164;2023-09-12T09:06:06;4.70;;;3.90;;
21192;SDS011;10754;51.106;7.164;2023-09-12T09:08:33;4.45;;;4.13;;
21192;SDS011;10754;51.106;7.164;2023-09-12T09:11:00;4.78;;;4.18;;
21192;SDS011;10754;51.106;7.164;2023-09-12T09:13:31;5.25;;;4.63;;
21192;SDS011;10754;51.106;7.164;2023-09-12T09:21:21;4.80;;;4.40;;
21192;SDS011;10754;51.106;7.164;2023-09-12T09:23:50;5.80;;;4.60;;
21192;SDS011;10754;51.106;7.164;2023-09-12T09:26:16;6.25;;;4.70;;
21192;SDS011;10754;51.106;7.164;2023-09-12T09:28:42;4.93;;;4.20;;
21192;SDS011;10754;51.106;7.164;2023-09-12T09:31:14;6.43;;;4.30;;
21192;SDS011;10754;51.106;7.164;2023-09-12T09:33:39;5.85;;;4.57;;
21192;SDS011;10754;51.106;7.164;2023-09-12T09:36:06;5.63;;;4.40;;
21192;SDS011;10754;51.106;7.164;2023-09-12T09:38:35;6.00;;;4.40;;
21192;SDS011;10754;51.106;7.164;2023-09-12T09:41:05;5.05;;;4.30;;
21192;SDS011;10754;51.106;7.164;2023-09-12T09:43:31;4.93;;;4.43;;
21192;SDS011;10754;51.106;7.164;2023-09-12T09:45:57;5.80;;;4.57;;
21192;SDS011;10754;51.106;7.164;2023-09-12T09:48:23;5.22;;;4.45;;
21192;SDS011;10754;51.106;7.164;2023-09-12T09:50:53;4.85;;;4.30;;
21192;SDS011;10754;51.106;7.164;2023-09-12T09:53:28;6.00;;;4.80;;
21192;SDS011;10754;51.106;7.164;2023-09-12T09:56:11;5.78;;;4.53;;
21192;SDS011;10754;51.106;7.164;2023-09-12T09:58:58;6.18;;;3.97;;
21192;SDS011;10754;51.106;7.164;2023-09-12T10:01:27;5.55;;;4.80;;
21192;SDS011;10754;51.106;7.164;2023-09-12T10:03:57;5.35;;;4.63;;
21192;SDS011;10754;51.106;7.164;2023-09-12T10:06:23;5.05;;;4.20;;
21192;SDS011;10754;51.106;7.164;2023-09-12T10:08:51;5.45;;;3.95;;
21192;SDS011;10754;51.106;7.164;2023-09-12T10:11:18;4.03;;;3.45;;
21192;SDS011;10754;51.106;7.164;2023-09-12T10:13:46;6.18;;;4.57;;
21192;SDS011;10754;51.106;7.164;2023-09-12T10:16:16;7.00;;;4.85;;
21192;SDS011;10754;51.106;7.164;2023-09-12T10:18:46;5.03;;;3.70;;
21192;SDS011;10754;51.106;7.164;2023-09-12T10:21:24;4.05;;;3.75;;
21192;SDS011;10754;51.106;7.164;2023-09-12T10:23:56;4.20;;;3.83;;
21192;SDS011;10754;51.106;7.164;2023-09-12T10:26:23;4.50;;;4.10;;
21192;SDS011;10754;51.106;7.164;2023-09-12T10:28:49;3.22;;;2.92;;
21192;SDS011;10754;51.106;7.164;2023-09-12T10:31:16;4.50;;;3.20;;
21192;SDS011;10754;51.106;7.164;2023-09-12T10:33:42;3.70;;;3.30;;
21192;SDS011;10754;51.106;7.164;2023-09-12T10:36:09;3.60;;;3.00;;
21192;SDS011;10754;51.106;7.164;2023-09-12T10:38:41;4.93;;;3.35;;
21192;SDS011;10754;51.106;7.164;2023-09-12T10:41:10;4.95;;;3.33;;
21192;SDS011;10754;51.106;7.164;2023-09-12T10:43:39;5.15;;;3.28;;
21192;SDS011;10754;51.106;7.164;2023-09-12T10:46:06;4.80;;;3.85;;
21192;SDS011;10754;51.106;7.164;2023-09-12T10:48:32;3.97;;;3.60;;
21192;SDS011;10754;51.106;7.164;2023-09-12T10:50:59;5.93;;;3.55;;
21192;SDS011;10754;51.106;7.164;2023-09-12T10:53:28;3.47;;;3.10;;
21192;SDS011;10754;51.106;7.164;2023-09-12T10:56:15;3.42;;;3.08;;
21192;SDS011;10754;51.106;7.164;2023-09-12T10:59:08;4.47;;;3.10;;
21192;SDS011;10754;51.106;7.164;2023-09-12T11:01:32;4.18;;;3.42;;
21192;SDS011;10754;51.106;7.164;2023-09-12T11:04:05;4.35;;;3.40;;
21192;SDS011;10754;51.106;7.164;2023-09-12T11:06:44;4.20;;;3.80;;
21192;SDS011;10754;51.106;7.164;2023-09-12T11:11:49;3.33;;;3.03;;
21192;SDS011;10754;51.106;7.164;2023-09-12T11:14:29;4.75;;;3.40;;
21192;SDS011;10754;51.106;7.164;2023-09-12T11:22:35;4.10;;;3.70;;
21192;SDS011;10754;51.106;7.164;2023-09-12T11:25:04;3.75;;;3.40;;
21192;SDS011;10754;51.106;7.164;2023-09-12T11:27:44;5.43;;;3.80;;
21192;SDS011;10754;51.106;7.164;2023-09-12T11:30:10;4.72;;;3.65;;
21192;SDS011;10754;51.106;7.164;2023-09-12T11:32:36;3.50;;;3.20;;
21192;SDS011;10754;51.106;7.164;2023-09-12T11:35:05;3.78;;;3.42;;
21192;SDS011;10754;51.106;7.164;2023-09-12T11:37:32;3.25;;;2.95;;
21192;SDS011;10754;51.106;7.164;2023-09-12T11:40:01;4.13;;;3.72;;
21192;SDS011;10754;51.106;7.164;2023-09-12T11:42:40;3.80;;;3.47;;
21192;SDS011;10754;51.106;7.164;2023-09-12T11:45:10;3.33;;;2.90;;
21192;SDS011;10754;51.106;7.164;2023-09-12T11:47:45;4.85;;;3.90;;
21192;SDS011;10754;51.106;7.164;2023-09-12T11:53:02;4.05;;;3.70;;
21192;SDS011;10754;51.106;7.164;2023-09-12T11:55:32;3.38;;;3.08;;
21192;SDS011;10754;51.106;7.164;2023-09-12T11:58:18;3.53;;;3.22;;
21192;SDS011;10754;51.106;7.164;2023-09-12T12:00:54;4.10;;;3.72;;
21192;SDS011;10754;51.106;7.164;2023-09-12T12:03:22;3.70;;;3.30;;
21192;SDS011;10754;51.106;7.164;2023-09-12T12:05:49;4.15;;;3.40;;
21192;SDS011;10754;51.106;7.164;2023-09-12T12:08:16;4.07;;;3.42;;
21192;SDS011;10754;51.106;7.164;2023-09-12T12:10:42;3.67;;;3.33;;
21192;SDS011;10754;51.106;7.164;2023-09-12T12:13:11;4.95;;;3.65;;
21192;SDS011;10754;51.106;7.164;2023-09-12T12:15:41;5.53;;;3.65;;
21192;SDS011;10754;51.106;7.164;2023-09-12T12:18:07;3.83;;;3.30;;
21192;SDS011;10754;51.106;7.164;2023-09-12T12:20:32;4.43;;;3.03;;
21192;SDS011;10754;51.106;7.164;2023-09-12T12:22:58;3.40;;;3.10;;
21192;SDS011;10754;51.106;7.164;2023-09-12T12:25:23;3.95;;;3.22;;
21192;SDS011;10754;51.106;7.164;2023-09-12T12:27:49;3.63;;;3.33;;
21192;SDS011;10754;51.106;7.164;2023-09-12T12:30:15;3.42;;;3.03;;
21192;SDS011;10754;51.106;7.164;2023-09-12T12:32:44;3.40;;;2.90;;
21192;SDS011;10754;51.106;7.164;2023-09-12T12:35:18;4.80;;;3.13;;
21192;SDS011;10754;51.106;7.164;2023-09-12T12:37:48;3.38;;;3.05;;
21192;SDS011;10754;51.106;7.164;2023-09-12T12:40:15;3.03;;;2.75;;
21192;SDS011;10754;51.106;7.164;2023-09-12T12:42:42;3.72;;;3.15;;
21192;SDS011;10754;51.106;7.164;2023-09-12T12:47:41;3.58;;;2.60;;
21192;SDS011;10754;51.106;7.164;2023-09-12T12:50:07;4.45;;;2.67;;
21192;SDS011;10754;51.106;7.164;2023-09-12T12:52:36;2.83;;;2.63;;
21192;SDS011;10754;51.106;7.164;2023-09-12T12:55:03;2.90;;;2.70;;
21192;SDS011;10754;51.106;7.164;2023-09-12T12:57:30;3.42;;;2.70;;
21192;SDS011;10754;51.106;7.164;2023-09-12T12:59:55;3.20;;;2.90;;
21192;SDS011;10754;51.106;7.164;2023-09-12T13:02:22;4.22;;;2.75;;
21192;SDS011;10754;51.106;7.164;2023-09-12T13:04:47;3.72;;;2.75;;
21192;SDS011;10754;51.106;7.164;2023-09-12T13:07:13;4.13;;;2.90;;
21192;SDS011;10754;51.106;7.164;2023-09-12T13:09:38;4.28;;;2.85;;
21192;SDS011;10754;51.106;7.164;2023-09-12T13:12:04;2.97;;;2.75;;
21192;SDS011;10754;51.106;7.164;2023-09-12T13:14:31;5.20;;;2.85;;
21192;SDS011;10754;51.106;7.164;2023-09-12T13:16:57;3.40;;;2.92;;
21192;SDS011;10754;51.106;7.164;2023-09-12T13:19:24;4.00;;;2.58;;
21192;SDS011;10754;51.106;7.164;2023-09-12T13:21:50;3.05;;;2.75;;
21192;SDS011;10754;51.106;7.164;2023-09-12T13:24:15;3.10;;;2.78;;
21192;SDS011;10754;51.106;7.164;2023-09-12T13:26:41;3.10;;;2.65;;
21192;SDS011;10754;51.106;7.164;2023-09-12T13:29:06;3.30;;;2.92;;
21192;SDS011;10754;51.106;7.164;2023-09-12T13:31:32;3.20;;;2.67;;
21192;SDS011;10754;51.106;7.164;2023-09-12T13:33:57;3.95;;;2.70;;
21192;SDS011;10754;51.106;7.164;2023-09-12T13:36:23;2.97;;;2.78;;
21192;SDS011;10754;51.106;7.164;2023-09-12T13:38:49;5.00;;;2.70;;
21192;SDS011;10754;51.106;7.164;2023-09-12T13:41:16;3.20;;;2.90;;
21192;SDS011;10754;51.106;7.164;2023-09-12T13:43:42;3.20;;;2.85;;
21192;SDS011;10754;51.106;7.164;2023-09-12T13:46:10;4.95;;;3.45;;
21192;SDS011;10754;51.106;7.164;2023-09-12T13:48:35;3.00;;;2.70;;
21192;SDS011;10754;51.106;7.164;2023-09-12T13:51:01;2.72;;;2.55;;
21192;SDS011;10754;51.106;7.164;2023-09-12T13:53:27;2.70;;;2.50;;
21192;SDS011;10754;51.106;7.164;2023-09-12T13:55:53;4.30;;;2.97;;
21192;SDS011;10754;51.106;7.164;2023-09-12T13:58:18;3.03;;;2.70;;
21192;SDS011;10754;51.106;7.164;2023-09-12T14:00:44;2.83;;;2.53;;
21192;SDS011;10754;51.106;7.164;2023-09-12T14:03:09;2.80;;;2.47;;
21192;SDS011;10754;51.106;7.164;2023-09-12T14:05:35;2.80;;;2.60;;
21192;SDS011;10754;51.106;7.164;2023-09-12T14:08:00;3.17;;;2.80;;
21192;SDS011;10754;51.106;7.164;2023-09-12T14:10:26;3.00;;;2.80;;
21192;SDS011;10754;51.106;7.164;2023-09-12T14:12:51;4.90;;;3.08;;
21192;SDS011;10754;51.106;7.164;2023-09-12T14:15:17;4.05;;;2.92;;
21192;SDS011;10754;51.106;7.164;2023-09-12T14:17:42;3.80;;;2.90;;
21192;SDS011;10754;51.106;7.164;2023-09-12T14:20:08;3.15;;;2.72;;
21192;SDS011;10754;51.106;7.164;2023-09-12T14:22:34;4.43;;;3.03;;
21192;SDS011;10754;51.106;7.164;2023-09-12T14:25:00;3.25;;;2.72;;
21192;SDS011;10754;51.106;7.164;2023-09-12T14:27:26;5.72;;;3.10;;
21192;SDS011;10754;51.106;7.164;2023-09-12T14:29:51;2.65;;;2.47;;
21192;SDS011;10754;51.106;7.164;2023-09-12T14:32:17;3.67;;;2.90;;
21192;SDS011;10754;51.106;7.164;2023-09-12T14:34:42;6.57;;;2.95;;
21192;SDS011;10754;51.106;7.164;2023-09-12T14:37:10;3.22;;;2.67;;
21192;SDS011;10754;51.106;7.164;2023-09-12T14:39:35;2.80;;;2.60;;
21192;SDS011;10754;51.106;7.164;2023-09-12T14:42:01;4.18;;;2.78;;
21192;SDS011;10754;51.106;7.164;2023-09-12T14:44:33;2.90;;;2.28;;
21192;SDS011;10754;51.106;7.164;2023-09-12T14:46:58;3.55;;;3.22;;
21192;SDS011;10754;51.106;7.164;2023-09-12T14:49:24;4.47;;;3.05;;
21192;SDS011;10754;51.106;7.164;2023-09-12T14:51:50;3.10;;;2.80;;
21192;SDS011;10754;51.106;7.164;2023-09-12T14:54:16;3.03;;;2.70;;
21192;SDS011;10754;51.106;7.164;2023-09-12T14:56:41;3.00;;;2.70;;
21192;SDS011;10754;51.106;7.164;2023-09-12T14:59:07;4.90;;;3.13;;
21192;SDS011;10754;51.106;7.164;2023-09-12T15:01:33;4.88;;;2.90;;
21192;SDS011;10754;51.106;7.164;2023-09-12T15:04:00;3.25;;;2.90;;
21192;SDS011;10754;51.106;7.164;2023-09-12T15:06:26;3.47;;;2.75;;
21192;SDS011;10754;51.106;7.164;2023-09-12T15:08:52;4.00;;;3.15;;